Ana Sayfa
METAR-TAF:

METAR-TAF

Havaalanları :

Yakutsk, Rusya

Yakutsk Havalimanı

Enlem: 62-01N, Boylam: 129-43E, yükseklik: 103 m

Güncel hava durumu gözlemi

Rapor saat 15:00 UTC de 4 saat ve 9 dakika önce yapıldı.
Rüzgar kuzeybatıdan 2 kt
Sıcaklık -40°C
Nem 65%
Basınç 1015 hPa
Görüş mesafesi: 0600 m
sis

METAR: UEEE 201500Z 32001MPS 0800 0600NE R23L/2000D FG NSC M40/M44 Q1015 R23L/490150 NOSIG RMK QFE752

Saat: 04:09 (19:09 UTC)

Tahmin

Rapor saat 14:00 UTC de 5 saat ve 9 dakika önce yapıldı.
Ayın 20'si saat 15 UTC'den ayın 21'si saat 21 UTC'ye kadar geçerli Tahmin
Rüzgar değişken yönden 2 kt
Görüş mesafesi: 2100 m
Pus
Geçici
ayın 20'si saat 15 UTC'den ayın 20'si saat 20 UTC'ye kadar
Görüş mesafesi: 0700 m
sis
Geçici
ayın 20'si saat 20 UTC'den ayın 21'si saat 04 UTC'ye kadar
Görüş mesafesi: 0300 m
300 ft yükseklikte
sis

TAF: UEEE 201400Z 2015/2121 VRB01MPS 2100 BR NSC TXM30/2106Z TNM43/2023Z TEMPO 2015/2020 0700 FG TEMPO 2020/2104 0300 FG VV003

4.000'den fazla havaalanı için hava durumu gözlemleri ve tahminleri (METAR ve TAF raporları).

Kullanılabilir istasyonlar harita üzerinde sarı ve kırmızı noktalarla gösterilir.

İstasyonun adını görmek için fareyi noktanın üzerinde gezdirin.

Sonrasında hava gözlem ve tahminlerini görmek için tıklayın.

Haritayı değiştirmek için: yaklaştırmak için siyah artı işaretli yeşil düğmeye ve uzaklaştırmak için de eksi işaretli düğmeye hızla tıklayın; bitişik haritalar için yeşil okları kullanın.


METAR-TAF: